Time;durP1;ratioP1;P1;durP2;ratioP2;P2;SDS_P1;SDS_P2;PMS_P1;PMS_P2;Temp;Humidity;BMP_temperature;BMP_pressure;BME280_temperature;BME280_humidity;BME280_pressure;Samples;Min_cycle;Max_cycle;Signal;HPM_P1;HPM_P2
2023/08/23 00:00:24;;;;;;;4.90;2.60;;;;;;;19.44;81.99;100841.08;105550;1256;82484;-64
2023/08/23 00:03:11;;;;;;;4.40;2.70;;;;;;;19.40;82.13;100848.06;105589;1255;74417;-64
2023/08/23 00:05:38;;;;;;;4.90;3.10;;;;;;;19.36;82.19;100849.58;105580;1254;69205;-64
2023/08/23 00:08:05;;;;;;;7.80;3.10;;;;;;;19.31;82.21;100847.41;105522;1255;69153;-64
2023/08/23 00:10:32;;;;;;;8.10;3.00;;;;;;;19.29;82.46;100839.79;105596;1255;74990;-64
2023/08/23 00:12:59;;;;;;;10.40;3.10;;;;;;;19.25;82.52;100837.55;105524;1254;82696;-64
2023/08/23 00:15:26;;;;;;;6.60;3.40;;;;;;;19.21;82.58;100837.49;105546;1251;72731;-64
2023/08/23 00:17:53;;;;;;;6.10;3.00;;;;;;;19.16;82.68;100837.42;105547;1265;69160;-64
2023/08/23 00:20:20;;;;;;;6.90;3.70;;;;;;;19.14;82.93;100831.03;105589;1257;69105;-62
2023/08/23 00:22:47;;;;;;;8.10;3.00;;;;;;;19.13;83.00;100833.56;105553;1254;73727;-63
2023/08/23 00:25:14;;;;;;;5.90;2.70;;;;;;;19.11;83.19;100836.52;105556;1254;83800;-63
2023/08/23 00:27:41;;;;;;;7.10;3.10;;;;;;;19.10;83.20;100840.15;105554;1257;73613;-63
2023/08/23 00:30:08;;;;;;;8.00;2.90;;;;;;;19.07;83.25;100844.40;105570;1256;69108;-62
2023/08/23 00:32:35;;;;;;;6.00;2.90;;;;;;;19.05;83.20;100846.30;105629;1256;69186;-62
2023/08/23 00:35:04;;;;;;;7.00;3.10;;;;;;;19.02;83.08;100845.30;105619;1256;73858;-63
2023/08/23 00:37:31;;;;;;;7.60;3.20;;;;;;;18.97;83.14;100848.59;105620;1254;82419;-63
2023/08/23 00:39:58;;;;;;;6.80;3.20;;;;;;;18.92;83.12;100857.98;105516;1253;72726;-62
2023/08/23 00:42:25;;;;;;;5.80;3.30;;;;;;;18.85;83.25;100861.77;105646;1254;69268;-63
2023/08/23 00:44:52;;;;;;;7.70;2.80;;;;;;;18.82;83.60;100864.98;105524;1255;69191;-63
2023/08/23 00:47:19;;;;;;;6.10;3.60;;;;;;;18.79;83.80;100864.63;105530;1255;74795;-63
2023/08/23 00:49:46;;;;;;;5.20;2.80;;;;;;;18.76;83.82;100858.30;105478;1257;82385;-62
2023/08/23 00:52:15;;;;;;;5.50;3.10;;;;;;;18.72;83.85;100860.45;105518;1254;73959;-63
2023/08/23 00:54:44;;;;;;;7.00;3.40;;;;;;;18.69;84.15;100852.50;105502;1255;69148;-63
2023/08/23 00:57:11;;;;;;;5.60;3.00;;;;;;;18.67;84.23;100848.74;105573;1257;69195;-62
2023/08/23 00:59:38;;;;;;;5.00;2.80;;;;;;;18.65;84.53;100847.45;105482;1254;73773;-63
2023/08/23 01:02:05;;;;;;;5.40;3.30;;;;;;;18.65;84.67;100843.17;105536;1254;83366;-62
2023/08/23 01:04:32;;;;;;;4.90;3.50;;;;;;;18.64;84.79;100838.13;105618;1251;72591;-63
2023/08/23 01:07:01;;;;;;;5.00;2.70;;;;;;;18.63;84.79;100835.33;105527;1258;69787;-63
2023/08/23 01:09:31;;;;;;;;;;;;;;;18.62;84.79;100837.55;105619;1252;69201;-63
2023/08/23 01:12:10;;;;;;;5.10;2.80;;;;;;;18.59;84.86;100840.77;105662;1254;74818;-63
2023/08/23 01:14:40;;;;;;;7.30;2.60;;;;;;;18.55;84.79;100842.58;105535;1255;83485;-63
2023/08/23 01:17:08;;;;;;;5.40;3.20;;;;;;;18.51;84.80;100838.23;105618;1257;72667;-62
2023/08/23 01:19:50;;;;;;;7.40;3.20;;;;;;;18.47;84.87;100844.34;105509;1253;69194;-63
2023/08/23 01:22:19;;;;;;;7.70;3.40;;;;;;;18.42;84.96;100842.70;105583;1253;69205;-63
2023/08/23 01:24:51;;;;;;;5.10;2.80;;;;;;;18.39;85.06;100846.27;105518;1254;74899;-63
2023/08/23 01:27:18;;;;;;;9.90;3.30;;;;;;;18.34;85.12;100845.86;105611;1257;83180;-63
2023/08/23 01:29:46;;;;;;;6.70;3.20;;;;;;;18.30;85.16;100849.28;105543;1257;73345;-63
2023/08/23 01:32:18;;;;;;;5.00;3.10;;;;;;;18.25;85.13;100847.99;105542;1256;69320;-62
2023/08/23 01:34:50;;;;;;;4.70;2.70;;;;;;;18.19;85.16;100851.20;105597;1255;70750;-63
2023/08/23 01:37:20;;;;;;;4.50;2.60;;;;;;;18.13;85.24;100848.20;105529;1254;72710;-63
2023/08/23 01:39:49;;;;;;;5.00;2.70;;;;;;;18.08;85.29;100846.77;105461;1257;82358;-63
2023/08/23 01:42:16;;;;;;;6.30;3.40;;;;;;;18.04;85.48;100854.77;105631;1254;72720;-62
2023/08/23 01:44:43;;;;;;;8.30;3.00;;;;;;;18.01;85.56;100862.94;105493;1253;69166;-63
2023/08/23 01:47:10;;;;;;;4.80;2.80;;;;;;;17.96;85.86;100858.83;105502;1254;69199;-63
2023/08/23 01:49:37;;;;;;;7.70;3.10;;;;;;;17.92;85.95;100858.16;105567;1254;74811;-63
2023/08/23 01:52:04;;;;;;;7.60;2.70;;;;;;;17.86;85.94;100853.55;105544;1257;82290;-62
2023/08/23 01:54:31;;;;;;;6.50;3.20;;;;;;;17.78;86.06;100852.59;105492;1254;72694;-62
2023/08/23 01:56:58;;;;;;;3.80;2.70;;;;;;;17.71;86.04;100850.56;105551;1254;69198;-62
2023/08/23 01:59:25;;;;;;;9.70;3.20;;;;;;;17.65;86.25;100852.71;105576;1257;69175;-62
2023/08/23 02:01:52;;;;;;;5.00;3.10;;;;;;;17.59;86.35;100854.22;105478;1254;74990;-62
2023/08/23 02:04:20;;;;;;;5.80;2.80;;;;;;;17.54;86.54;100846.77;105562;1254;81539;-63
2023/08/23 02:06:48;;;;;;;8.80;3.20;;;;;;;17.50;86.71;100850.37;105597;1254;72634;-62
2023/08/23 02:09:14;;;;;;;5.90;3.20;;;;;;;17.42;86.70;100854.91;105478;1251;69035;-62
2023/08/23 02:11:41;;;;;;;7.20;2.90;;;;;;;17.37;86.91;100856.25;105490;1256;69149;-62
2023/08/23 02:14:09;;;;;;;11.10;2.70;;;;;;;17.33;87.08;100859.10;105596;1254;73788;-62
2023/08/23 02:16:36;;;;;;;6.10;2.70;;;;;;;17.30;87.22;100862.65;105457;1254;83724;-62
2023/08/23 02:19:03;;;;;;;6.60;2.90;;;;;;;17.28;87.43;100867.01;105534;1257;74091;-62
2023/08/23 02:21:31;;;;;;;7.50;3.00;;;;;;;17.24;87.39;100859.99;105611;1253;69088;-62
2023/08/23 02:23:58;;;;;;;5.00;3.20;;;;;;;17.20;87.57;100854.24;105459;1257;69123;-63
2023/08/23 02:26:25;;;;;;;6.80;3.00;;;;;;;17.17;87.65;100855.10;105679;1254;73756;-62
2023/08/23 02:28:52;;;;;;;6.80;3.90;;;;;;;17.16;87.79;100854.46;105547;1257;82522;-62
2023/08/23 02:31:19;;;;;;;7.50;3.10;;;;;;;17.14;87.85;100850.70;105513;1254;73683;-62
2023/08/23 02:33:46;;;;;;;7.80;3.20;;;;;;;17.11;88.09;100851.42;105554;1254;69201;-62
2023/08/23 02:36:13;;;;;;;4.80;2.90;;;;;;;17.08;88.10;100852.65;105574;1256;69128;-62
2023/08/23 02:38:40;;;;;;;7.90;3.20;;;;;;;17.03;88.19;100850.43;105578;1256;73822;-62
2023/08/23 02:41:08;;;;;;;6.50;3.30;;;;;;;16.98;88.24;100850.38;105570;1254;82751;-63
2023/08/23 02:43:38;;;;;;;5.50;3.20;;;;;;;16.95;88.25;100851.61;105555;1253;72625;-62
2023/08/23 02:46:06;;;;;;;9.00;2.80;;;;;;;16.90;88.33;100855.21;105580;1254;69048;-62
2023/08/23 02:48:33;;;;;;;5.90;2.80;;;;;;;16.87;88.39;100854.01;105614;1257;69175;-62
2023/08/23 02:51:00;;;;;;;10.40;3.10;;;;;;;16.82;88.41;100855.14;105573;1254;73791;-62
2023/08/23 02:53:27;;;;;;;4.70;3.20;;;;;;;16.77;88.46;100855.95;105559;1256;83265;-62
2023/08/23 02:55:54;;;;;;;4.90;2.90;;;;;;;16.70;88.59;100858.09;105535;1254;72625;-62
2023/08/23 02:58:22;;;;;;;6.70;3.00;;;;;;;16.64;88.63;100864.76;105548;1252;69106;-62
2023/08/23 03:00:49;;;;;;;7.20;3.00;;;;;;;16.59;88.87;100870.69;105539;1256;69177;-62
2023/08/23 03:03:16;;;;;;;6.90;2.70;;;;;;;16.56;89.11;100872.59;105582;1255;74746;-62
2023/08/23 03:05:55;;;;;;;6.10;2.90;;;;;;;16.55;89.37;100877.45;105597;1256;83133;-62
2023/08/23 03:08:26;;;;;;;5.50;2.80;;;;;;;16.50;89.14;100877.19;105475;1257;73791;-62
2023/08/23 03:11:06;;;;;;;5.80;2.90;;;;;;;16.45;89.34;100881.15;105513;1254;69073;-62
2023/08/23 03:13:33;;;;;;;4.80;2.80;;;;;;;16.41;89.57;100878.71;105649;1257;69201;-62
2023/08/23 03:16:01;;;;;;;4.90;3.10;;;;;;;16.39;89.65;100881.45;105659;1255;74976;-62
2023/08/23 03:18:28;;;;;;;6.70;3.30;;;;;;;16.36;89.60;100885.17;105612;1255;83359;-62
2023/08/23 03:20:55;;;;;;;6.50;3.20;;;;;;;16.29;89.60;100881.28;105484;1256;73999;-62
2023/08/23 03:23:23;;;;;;;5.10;2.80;;;;;;;16.24;89.84;100880.67;105599;1254;69059;-62
2023/08/23 03:25:50;;;;;;;7.30;3.00;;;;;;;16.21;90.08;100881.38;105633;1256;69278;-63
2023/08/23 03:28:18;;;;;;;5.90;2.80;;;;;;;16.20;90.52;100878.77;105636;1254;72980;-62
2023/08/23 03:30:47;;;;;;;8.70;3.20;;;;;;;16.20;90.79;100880.02;105582;1256;82954;-62
2023/08/23 03:33:15;;;;;;;5.40;2.80;;;;;;;16.20;90.84;100879.67;105591;1254;72287;-62
2023/08/23 03:35:42;;;;;;;7.00;3.60;;;;;;;16.18;90.90;100877.12;105556;1256;69178;-62
2023/08/23 03:38:09;;;;;;;6.20;3.30;;;;;;;16.16;90.95;100876.52;105540;1255;69112;-62
2023/08/23 03:40:39;;;;;;;5.50;3.10;;;;;;;16.15;90.93;100877.45;105568;1254;74782;-62
2023/08/23 03:43:07;;;;;;;4.70;3.10;;;;;;;16.10;90.81;100877.34;105566;1256;82264;-63
2023/08/23 03:45:34;;;;;;;5.60;2.70;;;;;;;16.07;90.94;100877.70;105515;1254;72530;-62
2023/08/23 03:48:02;;;;;;;6.30;3.10;;;;;;;16.05;91.09;100878.48;105586;1252;69183;-62
2023/08/23 03:50:29;;;;;;;5.20;2.70;;;;;;;16.02;91.00;100876.02;105659;1256;69297;-62
2023/08/23 03:52:56;;;;;;;7.30;3.20;;;;;;;15.98;91.07;100876.94;105591;1254;73783;-62
2023/08/23 03:55:23;;;;;;;5.10;2.90;;;;;;;15.96;91.24;100874.02;105483;1256;83524;-62
2023/08/23 03:57:51;;;;;;;6.60;3.40;;;;;;;15.94;91.30;100871.31;105563;1257;73043;-62
2023/08/23 04:00:18;;;;;;;5.90;3.10;;;;;;;15.92;91.39;100870.02;105585;1256;69132;-62
2023/08/23 04:02:46;;;;;;;4.20;3.10;;;;;;;15.90;91.44;100870.30;105536;1254;69219;-62
2023/08/23 04:05:14;;;;;;;7.80;2.80;;;;;;;15.90;91.65;100870.64;105508;1254;74655;-62
2023/08/23 04:07:41;;;;;;;6.80;2.70;;;;;;;15.86;91.50;100872.42;105607;1256;83415;-62
2023/08/23 04:10:08;;;;;;;6.40;3.10;;;;;;;15.81;91.46;100877.59;105619;1253;73688;-62
2023/08/23 04:12:36;;;;;;;7.50;2.90;;;;;;;15.78;91.65;100883.74;105603;1256;69173;-63
2023/08/23 04:15:03;;;;;;;7.00;3.30;;;;;;;15.82;92.28;100885.86;105641;1253;69218;-64
2023/08/23 04:17:30;;;;;;;7.40;3.00;;;;;;;15.84;92.31;100884.32;105706;1257;74826;-64
2023/08/23 04:19:57;;;;;;;6.10;3.00;;;;;;;15.86;92.26;100886.55;105652;1253;83401;-63
2023/08/23 04:22:25;;;;;;;6.60;3.40;;;;;;;15.86;92.38;100886.73;105537;1254;73833;-62
2023/08/23 04:24:52;;;;;;;9.60;2.90;;;;;;;15.87;92.56;100889.31;105668;1256;69163;-62
2023/08/23 04:27:19;;;;;;;7.50;3.10;;;;;;;15.91;92.79;100890.52;105619;1256;69147;-62
2023/08/23 04:29:46;;;;;;;5.00;3.40;;;;;;;15.94;93.21;100887.72;105631;1254;73887;-62
2023/08/23 04:32:13;;;;;;;5.10;3.40;;;;;;;16.02;93.55;100892.38;105564;1254;83500;-62
2023/08/23 04:34:41;;;;;;;5.20;3.20;;;;;;;16.05;93.22;100892.56;105561;1254;72700;-62
2023/08/23 04:37:08;;;;;;;5.00;2.80;;;;;;;16.06;93.17;100892.67;105537;1257;69269;-62
2023/08/23 04:39:35;;;;;;;6.60;3.40;;;;;;;16.08;93.23;100893.15;105562;1253;69182;-62
2023/08/23 04:42:04;;;;;;;6.80;3.80;;;;;;;16.11;93.25;100896.36;105643;1253;72816;-62
2023/08/23 04:44:31;;;;;;;6.60;3.10;;;;;;;16.11;93.19;100899.20;105657;1254;83134;-62
2023/08/23 04:46:58;;;;;;;8.10;3.50;;;;;;;16.12;93.29;100899.13;105553;1256;72641;-62
2023/08/23 04:49:26;;;;;;;9.70;3.50;;;;;;;16.12;93.40;100900.86;105579;1255;69208;-62
2023/08/23 04:51:53;;;;;;;8.60;3.90;;;;;;;16.15;93.77;100897.20;105596;1252;69100;-62
2023/08/23 04:54:21;;;;;;;8.20;3.90;;;;;;;16.20;93.97;100898.19;105558;1254;73719;-62
2023/08/23 04:56:48;;;;;;;8.50;3.60;;;;;;;16.27;93.99;100904.52;105573;1256;83170;-62
2023/08/23 04:59:15;;;;;;;12.00;3.90;;;;;;;16.33;94.40;100907.19;105561;1254;72575;-62
2023/08/23 05:01:41;;;;;;;5.10;3.60;;;;;;;16.38;94.25;100906.90;105544;1255;69115;-62
2023/08/23 05:04:09;;;;;;;6.30;4.00;;;;;;;16.40;94.03;100910.87;105563;1254;69182;-62
2023/08/23 05:06:36;;;;;;;7.20;3.90;;;;;;;16.42;93.97;100907.77;105537;1254;73803;-62
2023/08/23 05:09:04;;;;;;;6.00;4.20;;;;;;;16.44;94.11;100908.88;105655;1254;83245;-63
2023/08/23 05:11:32;;;;;;;9.70;4.20;;;;;;;16.48;94.20;100908.14;105570;1254;73462;-64
2023/08/23 05:13:59;;;;;;;8.40;4.30;;;;;;;16.50;94.05;100905.36;105684;1253;69186;-66
2023/08/23 05:16:26;;;;;;;16.00;4.90;;;;;;;16.53;94.06;100901.89;105708;1256;69181;-64
2023/08/23 05:18:54;;;;;;;6.20;3.60;;;;;;;16.57;94.26;100902.02;105623;1254;75012;-64
2023/08/23 05:21:20;;;;;;;6.30;3.70;;;;;;;16.60;94.17;100901.67;105575;1257;83776;-60
2023/08/23 05:23:48;;;;;;;5.90;3.90;;;;;;;16.64;94.25;100904.79;105743;1252;73735;-62
2023/08/23 05:26:15;;;;;;;5.80;4.00;;;;;;;16.68;94.24;100904.05;105734;1254;69107;-60
2023/08/23 05:28:42;;;;;;;8.00;4.20;;;;;;;16.72;94.29;100907.56;105813;1254;69102;-61
2023/08/23 05:31:09;;;;;;;7.20;3.90;;;;;;;16.76;94.27;100909.46;105713;1254;74621;-61
2023/08/23 05:33:38;;;;;;;5.80;3.90;;;;;;;16.81;94.34;100910.30;105580;1256;82837;-60
2023/08/23 05:36:05;;;;;;;8.50;4.10;;;;;;;16.86;94.32;100910.20;105570;1257;73515;-64
2023/08/23 05:38:33;;;;;;;6.10;3.40;;;;;;;16.90;94.27;100911.70;105687;1255;69599;-64
2023/08/23 05:41:01;;;;;;;8.00;3.90;;;;;;;16.94;94.22;100909.17;105663;1256;69138;-64
2023/08/23 05:43:28;;;;;;;7.20;3.70;;;;;;;17.01;94.24;100911.28;105630;1254;74640;-64
2023/08/23 05:45:56;;;;;;;7.10;4.00;;;;;;;17.07;94.09;100908.82;105433;1257;83249;-64
2023/08/23 05:48:23;;;;;;;8.70;4.40;;;;;;;17.13;93.86;100908.11;105705;1254;73698;-64
2023/08/23 05:50:50;;;;;;;4.50;3.80;;;;;;;17.19;93.78;100904.28;105619;1253;69074;-64
2023/08/23 05:53:20;;;;;;;6.90;3.80;;;;;;;17.25;93.69;100903.76;105633;1256;69189;-64
2023/08/23 05:55:48;;;;;;;11.40;3.90;;;;;;;17.32;93.67;100906.35;105777;1254;74876;-64
2023/08/23 05:58:17;;;;;;;6.00;3.60;;;;;;;17.40;93.67;100913.85;105652;1254;81581;-64
2023/08/23 06:00:46;;;;;;;4.60;3.30;;;;;;;17.49;93.69;100919.02;105666;1254;71783;-64
2023/08/23 06:03:16;;;;;;;9.40;3.80;;;;;;;17.57;93.74;100919.20;105761;1256;69211;-64
2023/08/23 06:05:44;;;;;;;4.40;2.90;;;;;;;17.68;93.80;100919.67;105566;1257;69208;-64
2023/08/23 06:08:12;;;;;;;5.90;3.00;;;;;;;17.76;93.38;100923.98;105588;1254;75317;-64
2023/08/23 06:10:39;;;;;;;6.10;3.10;;;;;;;17.86;93.22;100920.95;105633;1254;82413;-63
2023/08/23 06:13:06;;;;;;;7.40;3.10;;;;;;;17.97;93.15;100924.34;105496;1254;73650;-64
2023/08/23 06:15:33;;;;;;;5.80;2.60;;;;;;;18.07;92.46;100921.46;105516;1255;69080;-64
2023/08/23 06:18:00;;;;;;;6.30;3.10;;;;;;;18.13;92.08;100917.88;105585;1256;69192;-64
2023/08/23 06:20:28;;;;;;;6.70;3.00;;;;;;;18.21;92.07;100916.69;105567;1254;72993;-64
2023/08/23 06:22:56;;;;;;;6.40;3.20;;;;;;;18.29;91.79;100917.79;105591;1256;83357;-64
2023/08/23 06:25:24;;;;;;;10.00;3.20;;;;;;;18.39;91.79;100918.98;105733;1254;72552;-64
2023/08/23 06:27:51;;;;;;;6.10;3.00;;;;;;;18.46;91.50;100920.46;105934;1254;69072;-64
2023/08/23 06:30:18;;;;;;;8.80;3.30;;;;;;;18.51;91.11;100919.64;105640;1256;69073;-64
2023/08/23 06:32:48;;;;;;;6.80;3.80;;;;;;;18.57;90.88;100915.02;105594;1256;73977;-64
2023/08/23 06:35:16;;;;;;;7.00;4.00;;;;;;;18.64;90.43;100915.13;105767;1254;83311;-64
2023/08/23 06:37:43;;;;;;;3.90;2.90;;;;;;;18.65;90.08;100914.86;105694;1254;73579;-64
2023/08/23 06:40:12;;;;;;;7.90;3.20;;;;;;;18.70;90.09;100912.81;105709;1254;69061;-64
2023/08/23 06:42:39;;;;;;;5.20;3.20;;;;;;;18.75;89.82;100913.21;105748;1256;69090;-65
2023/08/23 06:45:08;;;;;;;5.70;2.70;;;;;;;18.82;89.92;100916.69;105816;1254;74816;-62
2023/08/23 06:47:38;;;;;;;7.10;2.80;;;;;;;18.92;90.08;100912.28;105694;1252;83363;-62
2023/08/23 06:50:06;;;;;;;7.50;3.10;;;;;;;19.04;89.93;100912.81;105902;1256;73714;-62
2023/08/23 06:52:38;;;;;;;8.50;2.90;;;;;;;19.13;89.40;100915.55;105617;1253;69122;-62
2023/08/23 06:55:06;;;;;;;9.00;2.90;;;;;;;19.19;88.96;100916.77;105672;1253;69176;-64
2023/08/23 06:57:33;;;;;;;5.80;3.10;;;;;;;19.25;88.71;100916.41;105749;1253;74054;-64
2023/08/23 07:00:00;;;;;;;4.80;2.60;;;;;;;19.32;88.35;100919.81;105672;1254;83363;-64
2023/08/23 07:02:27;;;;;;;7.40;2.70;;;;;;;19.39;87.86;100919.39;105564;1253;73410;-64
2023/08/23 07:04:54;;;;;;;8.30;2.40;;;;;;;19.46;87.75;100915.38;105626;1253;69256;-64
2023/08/23 07:07:22;;;;;;;3.70;2.20;;;;;;;19.57;87.60;100914.65;105602;1255;69109;-64
2023/08/23 07:09:50;;;;;;;5.80;2.50;;;;;;;19.68;87.22;100916.27;105907;1251;75506;-64
2023/08/23 07:12:17;;;;;;;4.60;2.00;;;;;;;19.76;86.71;100922.08;105708;1254;83620;-64
2023/08/23 07:14:46;;;;;;;5.10;2.30;;;;;;;19.82;85.92;100927.33;105739;1252;73936;-64
2023/08/23 07:17:13;;;;;;;4.60;2.00;;;;;;;19.88;85.53;100929.30;105685;1254;69154;-65
2023/08/23 07:19:40;;;;;;;7.90;2.70;;;;;;;19.96;85.27;100926.23;105652;1254;69051;-63
2023/08/23 07:22:07;;;;;;;5.30;2.10;;;;;;;20.03;84.91;100928.43;105621;1256;74112;-63
2023/08/23 07:24:34;;;;;;;4.40;2.50;;;;;;;20.07;84.62;100929.76;105613;1256;82404;-62
2023/08/23 07:27:01;;;;;;;4.00;2.20;;;;;;;20.13;84.15;100930.23;105626;1253;73408;-63
2023/08/23 07:29:29;;;;;;;6.80;2.40;;;;;;;20.16;83.36;100929.48;105748;1251;69200;-62
2023/08/23 07:31:57;;;;;;;3.00;1.60;;;;;;;20.19;83.09;100927.36;105650;1253;69111;-64
2023/08/23 07:34:25;;;;;;;5.10;2.30;;;;;;;20.24;82.86;100926.45;105644;1254;74900;-60
2023/08/23 07:36:52;;;;;;;4.80;1.90;;;;;;;20.32;82.27;100932.67;105655;1255;83302;-63
2023/08/23 07:39:20;;;;;;;2.50;1.60;;;;;;;20.39;82.10;100935.20;105634;1255;72642;-63
2023/08/23 07:41:47;;;;;;;3.90;1.90;;;;;;;20.47;81.11;100934.22;105550;1252;69075;-60
2023/08/23 07:44:14;;;;;;;4.80;1.50;;;;;;;20.56;80.80;100932.81;105745;1254;69177;-59
2023/08/23 07:46:41;;;;;;;4.80;1.60;;;;;;;20.65;80.47;100933.58;105852;1255;73885;-61
2023/08/23 07:49:08;;;;;;;2.90;1.50;;;;;;;20.74;79.69;100940.55;105629;1256;83294;-61
2023/08/23 07:51:35;;;;;;;3.70;1.70;;;;;;;20.78;78.73;100936.73;105781;1256;72457;-60
2023/08/23 07:54:03;;;;;;;5.20;1.80;;;;;;;20.84;78.58;100936.13;105699;1256;69159;-60
2023/08/23 07:56:30;;;;;;;3.30;1.60;;;;;;;20.92;78.37;100941.26;105546;1256;265391;-60
2023/08/23 07:58:57;;;;;;;3.20;1.50;;;;;;;21.03;78.34;100940.06;105663;1256;74678;-61
2023/08/23 08:01:24;;;;;;;3.20;1.80;;;;;;;21.13;78.02;100937.02;105662;1254;83119;-61
2023/08/23 08:03:54;;;;;;;3.30;1.80;;;;;;;21.23;77.72;100938.31;105579;1254;73687;-60
2023/08/23 08:06:22;;;;;;;5.40;1.80;;;;;;;21.27;76.62;100939.18;105715;1253;69149;-60
2023/08/23 08:08:49;;;;;;;3.10;1.40;;;;;;;21.32;76.63;100941.33;105620;1257;69157;-60
2023/08/23 08:11:16;;;;;;;3.10;1.60;;;;;;;21.40;76.20;100943.28;105621;1256;73886;-60
2023/08/23 08:13:43;;;;;;;3.70;1.90;;;;;;;21.41;75.04;100941.77;105690;1254;83611;-60
2023/08/23 08:16:12;;;;;;;5.00;1.90;;;;;;;21.41;74.73;100941.84;105596;1257;71984;-61
2023/08/23 08:18:40;;;;;;;4.40;1.50;;;;;;;21.46;74.32;100943.70;105466;1255;69128;-61
2023/08/23 08:21:07;;;;;;;5.00;1.40;;;;;;;21.60;74.04;100943.22;107125;1253;69004;-61
2023/08/23 08:23:34;;;;;;;4.10;1.30;;;;;;;21.72;73.26;100944.46;105482;1253;73741;-63
2023/08/23 08:26:01;;;;;;;6.10;1.40;;;;;;;21.82;72.91;100945.68;105464;1253;83886;-63
2023/08/23 08:28:28;;;;;;;4.20;1.50;;;;;;;21.87;72.06;100944.59;105459;1254;73873;-63
2023/08/23 08:30:55;;;;;;;4.20;1.80;;;;;;;21.95;72.20;100946.58;105527;1254;69187;-63
2023/08/23 08:33:22;;;;;;;3.40;1.20;;;;;;;22.08;71.65;100952.58;105506;1257;69138;-63
2023/08/23 08:35:49;;;;;;;3.10;1.60;;;;;;;22.20;71.18;100950.06;105483;1256;73982;-63
2023/08/23 08:38:16;;;;;;;3.40;1.50;;;;;;;22.36;70.63;100950.81;105541;1254;82771;-63
2023/08/23 08:40:42;;;;;;;4.60;1.40;;;;;;;22.42;69.54;100948.73;105493;1256;72524;-63
2023/08/23 08:43:09;;;;;;;3.40;1.40;;;;;;;22.42;68.53;100951.02;105488;1254;69170;-63
2023/08/23 08:45:37;;;;;;;2.90;1.40;;;;;;;22.43;68.18;100948.08;105579;1253;69141;-63
2023/08/23 08:48:05;;;;;;;2.90;1.40;;;;;;;22.52;68.12;100951.70;105504;1254;74744;-63
2023/08/23 08:50:32;;;;;;;4.20;1.40;;;;;;;22.61;68.19;100951.86;105580;1256;83576;-63
2023/08/23 08:53:00;;;;;;;3.40;1.50;;;;;;;22.80;68.12;100953.73;105441;1253;72560;-63
2023/08/23 08:55:29;;;;;;;2.70;1.30;;;;;;;23.01;68.21;100958.91;105523;1256;69186;-63
2023/08/23 08:57:56;;;;;;;3.40;1.50;;;;;;;23.17;67.25;100955.95;105583;1252;69180;-63
2023/08/23 09:00:26;;;;;;;4.30;1.60;;;;;;;23.28;66.95;100954.54;105526;1257;72841;-63
2023/08/23 09:02:57;;;;;;;3.00;1.40;;;;;;;23.44;66.90;100956.27;105521;1256;83347;-63
2023/08/23 09:05:26;;;;;;;3.60;1.50;;;;;;;23.57;66.10;100956.08;105527;1254;73717;-63
2023/08/23 09:07:56;;;;;;;3.00;1.30;;;;;;;23.64;65.25;100950.36;105552;1254;69064;-63
2023/08/23 09:10:24;;;;;;;4.20;1.50;;;;;;;23.73;64.62;100951.73;105516;1256;69163;-63
2023/08/23 09:12:52;;;;;;;3.10;1.30;;;;;;;23.78;63.33;100951.45;105474;1254;74733;-63
2023/08/23 09:15:23;;;;;;;2.90;1.20;;;;;;;23.84;63.19;100947.95;105510;1256;83125;-63
2023/08/23 09:17:54;;;;;;;2.10;1.20;;;;;;;24.00;63.58;100948.45;105451;1254;73806;-63
2023/08/23 09:20:22;;;;;;;1.90;1.20;;;;;;;24.24;63.30;100950.83;105532;1256;69155;-63
2023/08/23 09:22:51;;;;;;;3.70;1.30;;;;;;;24.37;62.09;100950.56;105509;1256;69119;-63
2023/08/23 09:25:19;;;;;;;2.70;1.20;;;;;;;24.41;61.74;100950.42;105515;1254;75070;-63
2023/08/23 09:27:46;;;;;;;3.10;1.50;;;;;;;24.51;61.39;100949.94;105512;1256;83174;-63
2023/08/23 09:30:13;;;;;;;2.60;1.20;;;;;;;24.66;61.72;100950.09;105503;1256;72824;-63
2023/08/23 09:32:41;;;;;;;3.10;1.30;;;;;;;24.86;61.12;100950.96;105556;1253;69170;-63
2023/08/23 09:35:13;;;;;;;4.60;1.50;;;;;;;24.99;60.25;100948.73;105515;1256;69529;-63
2023/08/23 09:37:49;;;;;;;2.60;1.40;;;;;;;25.14;60.25;100953.87;105508;1254;74844;-63
2023/08/23 09:40:21;;;;;;;3.80;1.50;;;;;;;25.35;59.84;100954.90;105505;1256;83325;-63
2023/08/23 09:42:49;;;;;;;3.10;1.30;;;;;;;25.48;59.04;100952.36;105521;1254;73767;-63
2023/08/23 09:45:21;;;;;;;3.90;1.00;;;;;;;25.56;58.31;100949.48;105496;1256;69246;-63
2023/08/23 09:47:54;;;;;;;5.10;1.50;;;;;;;25.67;57.44;100943.89;105533;1256;69230;-64
2023/08/23 09:50:23;;;;;;;2.50;1.00;;;;;;;25.70;56.59;100943.91;105522;1253;74240;-63
2023/08/23 09:53:05;;;;;;;3.50;1.30;;;;;;;25.75;56.00;100941.86;105513;1254;82223;-64
2023/08/23 09:55:33;;;;;;;3.40;1.10;;;;;;;25.87;55.83;100939.22;105505;1254;73528;-63
2023/08/23 09:58:01;;;;;;;5.40;1.40;;;;;;;26.00;55.61;100938.80;105476;1252;69027;-63
2023/08/23 10:00:28;;;;;;;2.60;1.40;;;;;;;26.15;55.51;100938.52;105485;1254;70525;-64
2023/08/23 10:02:58;;;;;;;5.50;1.20;;;;;;;26.33;55.02;100939.55;105508;1253;74564;-64
2023/08/23 10:05:26;;;;;;;2.30;1.00;;;;;;;26.40;53.92;100938.60;105507;1256;83284;-64
2023/08/23 10:07:56;;;;;;;4.60;1.40;;;;;;;26.47;53.24;100940.81;105529;1254;73695;-64
2023/08/23 10:10:25;;;;;;;2.70;1.60;;;;;;;26.64;52.90;100936.53;105571;1254;69202;-64
2023/08/23 10:12:56;;;;;;;1.80;1.30;;;;;;;26.91;52.74;100931.84;105572;1253;69180;-64
2023/08/23 10:15:29;;;;;;;2.60;1.30;;;;;;;27.14;52.34;100929.52;105580;1254;74754;-66
2023/08/23 10:17:58;;;;;;;2.50;1.20;;;;;;;27.44;52.14;100931.30;105585;1254;83508;-65
2023/08/23 10:20:26;;;;;;;2.50;1.20;;;;;;;27.72;51.75;100925.55;105475;1254;72749;-58
2023/08/23 10:22:55;;;;;;;2.60;1.20;;;;;;;28.00;51.26;100923.12;105594;1256;69111;-58
2023/08/23 10:25:22;;;;;;;5.00;1.50;;;;;;;28.14;50.27;100923.46;105530;1254;69097;-58
2023/08/23 10:27:53;;;;;;;2.60;1.20;;;;;;;28.35;50.15;100917.35;105531;1254;73785;-58
2023/08/23 10:30:22;;;;;;;2.30;1.10;;;;;;;28.65;50.18;100922.14;105512;1254;83447;-58
2023/08/23 10:32:50;;;;;;;2.70;1.00;;;;;;;28.87;49.42;100920.98;105503;1253;72642;-58
2023/08/23 10:35:23;;;;;;;2.30;1.10;;;;;;;29.11;49.14;100919.59;105523;1253;69109;-58
2023/08/23 10:37:53;;;;;;;2.20;1.00;;;;;;;29.40;48.20;100918.09;105568;1256;69209;-58
2023/08/23 10:40:22;;;;;;;2.40;1.00;;;;;;;29.54;47.94;100911.33;105473;1254;74864;-58
2023/08/23 10:42:52;;;;;;;1.70;0.70;;;;;;;29.65;47.57;100910.91;105517;1254;83238;-59
2023/08/23 10:45:19;;;;;;;1.80;0.90;;;;;;;29.86;46.98;100913.61;105488;1254;72523;-58
2023/08/23 10:47:49;;;;;;;1.60;1.00;;;;;;;30.01;45.84;100908.86;105521;1257;69215;-58
2023/08/23 10:50:18;;;;;;;2.50;0.90;;;;;;;30.19;45.59;100902.55;105523;1256;69111;-58
2023/08/23 10:52:51;;;;;;;4.60;1.40;;;;;;;30.36;45.25;100901.20;105527;1255;73784;-59
2023/08/23 10:55:18;;;;;;;2.20;1.10;;;;;;;30.47;44.51;100897.45;105470;1256;84016;-58
2023/08/23 10:57:45;;;;;;;1.60;1.00;;;;;;;30.65;44.41;100894.64;105467;1254;72643;-58
2023/08/23 11:00:14;;;;;;;1.80;0.90;;;;;;;30.88;43.77;100889.48;105497;1254;69202;-58
2023/08/23 11:02:41;;;;;;;2.30;1.20;;;;;;;31.03;42.95;100891.39;105565;1254;69809;-58
2023/08/23 11:05:09;;;;;;;1.80;0.80;;;;;;;31.22;42.26;100891.06;105529;1258;74664;-58
2023/08/23 11:07:36;;;;;;;3.90;1.00;;;;;;;31.26;41.38;100885.76;105509;1254;83180;-58
2023/08/23 11:10:04;;;;;;;2.40;1.00;;;;;;;31.34;40.94;100883.77;105480;1253;72666;-58
2023/08/23 11:12:31;;;;;;;2.10;0.90;;;;;;;31.46;40.61;100882.32;105492;1254;69112;-58
2023/08/23 11:14:58;;;;;;;3.20;0.80;;;;;;;31.55;40.32;100880.17;105465;1254;69175;-59
2023/08/23 11:17:25;;;;;;;1.90;0.70;;;;;;;31.72;40.22;100875.86;105502;1253;74707;-58
2023/08/23 11:19:51;;;;;;;2.70;0.90;;;;;;;31.80;39.99;100875.21;105459;1256;83571;-59